Airfield :
LOGIN :

Register | Disclaimer

   EN    FR    IT 

 










Legend :    VFR   Marginal VFR   IFR   Intensive IFR   Very Intensive IFR
Visi :
Ceiling :
>= 8 km
>= 3000ft
5 to 8 km
1000 to 3000 ft
1500m to 5 km
500 to 1000 ft
800 to 1500m
200 to 500 ft
< 800m
< 200 ft
Symbols :   Thunderstorms  Fog  Heavy snow  Heavy precipitations  Wind > 20 kt
SIGMETs :     Misc.  Thunderstorms  Icing  Turbulence  Mountain Waves  Volcanic Ashes






- Airport Elevation : 297 ft


EGVP - Middle Wallop

CURRENT METAR :
  • 241450Z 28009KT 9999 SCT026 22/16 Q1015 TEMPO SCT024 RMK BLU TEMPO WHT

EXPIRED METARs :
  • 241421Z 27007KT 9999 FEW025 22/15 Q1015 TEMPO SCT024 RMK BLU TEMPO WHT
  • 241350Z 26008KT 9999 FEW024 ///// Q//// TEMPO SCT024 RMK BLU TEMPO WHT
  • 241320Z 26008KT 9999 FEW024 22/15 Q1015 TEMPO SCT024 RMK BLU TEMPO WHT
  • 241250Z 24007KT 9999 FEW020 ///// Q//// TEMPO SCT020 RMK BLU TEMPO WHT
  • 241220Z 27008KT 9999 FEW020 21/14 Q1016 TEMPO SCT020 RMK BLU TEMPO WHT

TAF TAF EGVP
Valid from the 24 at 12:00 until the 24 at 17:00 UTC


241019Z 2412/2417 26009KT 9999 FEW020
TEMPO 2412/2417 SCT020
ATIS : +44 1980 674 142



MET'MAP, your aeronautical weather chart ! - Copyright ORBIFLY December 2007 - Disclaimer

ORBIFLY MET'MAP TEAM :

Programming & Development : Alexandra Zaïnal
Concept & original design : Baudouin d'Aumeries
Assistance for programming : Marc-Olivier Méhu
Technical & hardware support : Manuel Goepfert

Contact : metmap@orbifly.com




SOURCES & CREDITS :

   NOAA